sensor_id;sensor_type;location;lat;lon;timestamp;temperature;humidity
2565;DHT22;1292;48.020;7.822;2023-11-21T06:45:33;9.80;99.90
2565;DHT22;1292;48.020;7.822;2023-11-21T06:48:00;9.90;99.90
2565;DHT22;1292;48.020;7.822;2023-11-21T06:50:27;9.90;99.90
2565;DHT22;1292;48.020;7.822;2023-11-21T06:52:54;9.90;99.90
2565;DHT22;1292;48.020;7.822;2023-11-21T06:55:21;10.00;99.90
2565;DHT22;1292;48.020;7.822;2023-11-21T06:57:47;10.00;99.90
2565;DHT22;1292;48.020;7.822;2023-11-21T07:00:16;10.00;99.90
2565;DHT22;1292;48.020;7.822;2023-11-21T07:02:45;10.00;99.90
2565;DHT22;1292;48.020;7.822;2023-11-21T07:05:12;10.00;99.90
2565;DHT22;1292;48.020;7.822;2023-11-21T07:07:39;10.10;99.90
2565;DHT22;1292;48.020;7.822;2023-11-21T07:10:07;10.10;99.90
2565;DHT22;1292;48.020;7.822;2023-11-21T07:12:34;10.10;99.90
2565;DHT22;1292;48.020;7.822;2023-11-21T07:15:01;10.10;99.90
2565;DHT22;1292;48.020;7.822;2023-11-21T07:17:32;10.00;99.90
2565;DHT22;1292;48.020;7.822;2023-11-21T07:20:00;9.90;99.90
2565;DHT22;1292;48.020;7.822;2023-11-21T07:22:27;9.80;99.90
2565;DHT22;1292;48.020;7.822;2023-11-21T07:24:54;9.80;99.90
2565;DHT22;1292;48.020;7.822;2023-11-21T07:27:22;9.80;99.90
2565;DHT22;1292;48.020;7.822;2023-11-21T07:29:50;9.70;99.90
2565;DHT22;1292;48.020;7.822;2023-11-21T07:32:17;9.80;99.90
2565;DHT22;1292;48.020;7.822;2023-11-21T07:34:44;9.70;99.90
2565;DHT22;1292;48.020;7.822;2023-11-21T07:37:12;9.70;99.90
2565;DHT22;1292;48.020;7.822;2023-11-21T07:39:39;9.70;99.90
2565;DHT22;1292;48.020;7.822;2023-11-21T07:42:07;9.70;99.90
2565;DHT22;1292;48.020;7.822;2023-11-21T07:44:34;9.70;99.90
2565;DHT22;1292;48.020;7.822;2023-11-21T07:47:01;9.60;99.90
2565;DHT22;1292;48.020;7.822;2023-11-21T07:49:28;9.70;99.90
2565;DHT22;1292;48.020;7.822;2023-11-21T07:51:55;9.70;99.90
2565;DHT22;1292;48.020;7.822;2023-11-21T07:54:23;9.70;99.90
2565;DHT22;1292;48.020;7.822;2023-11-21T07:56:50;9.70;99.90
2565;DHT22;1292;48.020;7.822;2023-11-21T07:59:16;9.80;99.90
2565;DHT22;1292;48.020;7.822;2023-11-21T08:01:44;9.70;99.90
2565;DHT22;1292;48.020;7.822;2023-11-21T08:04:11;9.70;99.90
2565;DHT22;1292;48.020;7.822;2023-11-21T08:06:38;9.80;99.90
2565;DHT22;1292;48.020;7.822;2023-11-21T08:09:06;9.80;99.90
2565;DHT22;1292;48.020;7.822;2023-11-21T08:11:35;9.80;99.90
2565;DHT22;1292;48.020;7.822;2023-11-21T08:14:04;9.90;99.90
2565;DHT22;1292;48.020;7.822;2023-11-21T08:16:31;9.90;99.90
2565;DHT22;1292;48.020;7.822;2023-11-21T08:18:58;10.00;99.90
2565;DHT22;1292;48.020;7.822;2023-11-21T08:21:25;10.00;99.90
2565;DHT22;1292;48.020;7.822;2023-11-21T08:23:54;10.00;99.90
2565;DHT22;1292;48.020;7.822;2023-11-21T08:26:22;10.10;99.90
2565;DHT22;1292;48.020;7.822;2023-11-21T08:28:50;10.00;99.90
2565;DHT22;1292;48.020;7.822;2023-11-21T08:31:23;10.00;99.90
2565;DHT22;1292;48.020;7.822;2023-11-21T08:33:50;10.00;99.90
2565;DHT22;1292;48.020;7.822;2023-11-21T08:36:18;10.10;99.90
2565;DHT22;1292;48.020;7.822;2023-11-21T08:38:46;10.10;99.90
2565;DHT22;1292;48.020;7.822;2023-11-21T08:41:14;10.20;99.90
2565;DHT22;1292;48.020;7.822;2023-11-21T08:43:41;10.30;99.90
2565;DHT22;1292;48.020;7.822;2023-11-21T08:46:09;10.30;99.90
2565;DHT22;1292;48.020;7.822;2023-11-21T08:48:37;10.30;99.90
2565;DHT22;1292;48.020;7.822;2023-11-21T08:51:04;10.40;99.90
2565;DHT22;1292;48.020;7.822;2023-11-21T08:53:31;10.50;99.90
2565;DHT22;1292;48.020;7.822;2023-11-21T08:55:58;10.60;99.90
2565;DHT22;1292;48.020;7.822;2023-11-21T08:58:25;10.60;99.90
2565;DHT22;1292;48.020;7.822;2023-11-21T09:00:52;10.70;99.90
2565;DHT22;1292;48.020;7.822;2023-11-21T09:03:20;10.70;99.90
2565;DHT22;1292;48.020;7.822;2023-11-21T09:05:47;10.60;99.90
2565;DHT22;1292;48.020;7.822;2023-11-21T09:08:14;10.60;99.90
2565;DHT22;1292;48.020;7.822;2023-11-21T09:10:40;10.50;99.90
2565;DHT22;1292;48.020;7.822;2023-11-21T09:13:08;10.60;99.90
2565;DHT22;1292;48.020;7.822;2023-11-21T09:15:35;10.60;99.90
2565;DHT22;1292;48.020;7.822;2023-11-21T09:18:02;10.70;99.90
2565;DHT22;1292;48.020;7.822;2023-11-21T09:20:31;10.70;99.90
2565;DHT22;1292;48.020;7.822;2023-11-21T09:22:58;10.80;99.90
2565;DHT22;1292;48.020;7.822;2023-11-21T09:25:25;10.90;99.90
2565;DHT22;1292;48.020;7.822;2023-11-21T09:27:54;11.00;99.90
2565;DHT22;1292;48.020;7.822;2023-11-21T09:30:21;11.00;99.90
2565;DHT22;1292;48.020;7.822;2023-11-21T09:32:50;10.90;99.90
2565;DHT22;1292;48.020;7.822;2023-11-21T09:35:17;10.90;99.90
2565;DHT22;1292;48.020;7.822;2023-11-21T09:37:45;10.90;99.90
2565;DHT22;1292;48.020;7.822;2023-11-21T09:40:12;11.00;99.90
2565;DHT22;1292;48.020;7.822;2023-11-21T09:42:49;11.10;99.90
2565;DHT22;1292;48.020;7.822;2023-11-21T09:45:21;11.10;99.90
2565;DHT22;1292;48.020;7.822;2023-11-21T09:47:52;11.00;99.90
2565;DHT22;1292;48.020;7.822;2023-11-21T09:50:20;10.90;99.90
2565;DHT22;1292;48.020;7.822;2023-11-21T09:52:54;10.90;99.90
2565;DHT22;1292;48.020;7.822;2023-11-21T09:55:24;10.80;99.90
2565;DHT22;1292;48.020;7.822;2023-11-21T09:57:56;10.80;99.90
2565;DHT22;1292;48.020;7.822;2023-11-21T10:00:23;10.60;99.90
2565;DHT22;1292;48.020;7.822;2023-11-21T10:02:51;10.60;99.90
2565;DHT22;1292;48.020;7.822;2023-11-21T10:05:18;10.60;99.90
2565;DHT22;1292;48.020;7.822;2023-11-21T10:07:50;10.70;99.90
2565;DHT22;1292;48.020;7.822;2023-11-21T10:10:19;10.70;99.90
2565;DHT22;1292;48.020;7.822;2023-11-21T10:12:49;10.80;99.90
2565;DHT22;1292;48.020;7.822;2023-11-21T10:15:20;10.80;99.90
2565;DHT22;1292;48.020;7.822;2023-11-21T10:17:49;10.60;99.90
2565;DHT22;1292;48.020;7.822;2023-11-21T10:20:16;10.50;99.90
2565;DHT22;1292;48.020;7.822;2023-11-21T10:22:43;10.50;99.90
2565;DHT22;1292;48.020;7.822;2023-11-21T10:25:12;10.60;99.90
2565;DHT22;1292;48.020;7.822;2023-11-21T10:27:40;10.70;99.90
2565;DHT22;1292;48.020;7.822;2023-11-21T10:30:09;10.70;99.90
2565;DHT22;1292;48.020;7.822;2023-11-21T10:32:37;10.60;99.90
2565;DHT22;1292;48.020;7.822;2023-11-21T10:35:06;10.50;99.90
2565;DHT22;1292;48.020;7.822;2023-11-21T10:37:35;10.50;99.90
2565;DHT22;1292;48.020;7.822;2023-11-21T10:40:05;10.60;99.90
2565;DHT22;1292;48.020;7.822;2023-11-21T10:42:34;10.70;99.90
2565;DHT22;1292;48.020;7.822;2023-11-21T10:45:01;10.80;99.90
2565;DHT22;1292;48.020;7.822;2023-11-21T10:47:31;10.90;99.90
2565;DHT22;1292;48.020;7.822;2023-11-21T10:49:57;10.80;99.90
2565;DHT22;1292;48.020;7.822;2023-11-21T10:52:27;10.80;99.90
2565;DHT22;1292;48.020;7.822;2023-11-21T10:54:54;10.90;99.90
2565;DHT22;1292;48.020;7.822;2023-11-21T10:57:22;10.90;99.90
2565;DHT22;1292;48.020;7.822;2023-11-21T10:59:54;10.90;99.90
2565;DHT22;1292;48.020;7.822;2023-11-21T11:02:23;11.00;99.90
2565;DHT22;1292;48.020;7.822;2023-11-21T11:04:54;11.00;99.90
2565;DHT22;1292;48.020;7.822;2023-11-21T11:07:26;11.00;99.90
2565;DHT22;1292;48.020;7.822;2023-11-21T11:09:54;11.00;99.90
2565;DHT22;1292;48.020;7.822;2023-11-21T11:12:21;11.00;99.90
2565;DHT22;1292;48.020;7.822;2023-11-21T11:14:48;11.00;99.90
2565;DHT22;1292;48.020;7.822;2023-11-21T11:17:18;11.00;99.90
2565;DHT22;1292;48.020;7.822;2023-11-21T11:19:46;10.90;99.90
2565;DHT22;1292;48.020;7.822;2023-11-21T11:22:23;10.80;99.90
2565;DHT22;1292;48.020;7.822;2023-11-21T11:25:11;10.50;99.90
2565;DHT22;1292;48.020;7.822;2023-11-21T11:27:47;10.60;99.90
2565;DHT22;1292;48.020;7.822;2023-11-21T11:30:25;10.70;99.90
2565;DHT22;1292;48.020;7.822;2023-11-21T11:33:02;10.60;99.90
2565;DHT22;1292;48.020;7.822;2023-11-21T11:35:37;10.40;99.90
2565;DHT22;1292;48.020;7.822;2023-11-21T11:38:05;10.50;99.90
2565;DHT22;1292;48.020;7.822;2023-11-21T11:40:39;10.50;99.90
2565;DHT22;1292;48.020;7.822;2023-11-21T11:43:07;10.50;99.90
2565;DHT22;1292;48.020;7.822;2023-11-21T11:45:35;10.30;99.90
2565;DHT22;1292;48.020;7.822;2023-11-21T11:48:08;10.20;99.90
2565;DHT22;1292;48.020;7.822;2023-11-21T11:50:43;10.20;99.90
2565;DHT22;1292;48.020;7.822;2023-11-21T11:53:33;10.20;99.90
2565;DHT22;1292;48.020;7.822;2023-11-21T11:56:20;10.30;99.90
2565;DHT22;1292;48.020;7.822;2023-11-21T11:58:48;10.30;99.90
2565;DHT22;1292;48.020;7.822;2023-11-21T12:01:17;10.30;99.90
2565;DHT22;1292;48.020;7.822;2023-11-21T12:04:25;10.20;99.90
2565;DHT22;1292;48.020;7.822;2023-11-21T12:07:02;10.10;99.90
2565;DHT22;1292;48.020;7.822;2023-11-21T12:09:31;10.30;99.90
2565;DHT22;1292;48.020;7.822;2023-11-21T12:11:59;10.30;99.90
2565;DHT22;1292;48.020;7.822;2023-11-21T12:14:26;10.30;99.90
2565;DHT22;1292;48.020;7.822;2023-11-21T12:16:54;10.30;99.90
2565;DHT22;1292;48.020;7.822;2023-11-21T12:19:22;10.30;99.90
2565;DHT22;1292;48.020;7.822;2023-11-21T12:21:49;10.30;99.90
2565;DHT22;1292;48.020;7.822;2023-11-21T12:24:17;10.20;99.90
2565;DHT22;1292;48.020;7.822;2023-11-21T12:26:44;10.10;99.90
2565;DHT22;1292;48.020;7.822;2023-11-21T12:29:11;10.10;99.90
2565;DHT22;1292;48.020;7.822;2023-11-21T12:31:38;10.10;99.90
2565;DHT22;1292;48.020;7.822;2023-11-21T12:34:06;10.10;99.90
2565;DHT22;1292;48.020;7.822;2023-11-21T12:36:37;10.10;99.90
2565;DHT22;1292;48.020;7.822;2023-11-21T12:39:04;10.10;99.90
2565;DHT22;1292;48.020;7.822;2023-11-21T12:41:31;10.10;99.90
2565;DHT22;1292;48.020;7.822;2023-11-21T12:43:59;10.10;99.90
2565;DHT22;1292;48.020;7.822;2023-11-21T12:46:26;10.10;99.90
2565;DHT22;1292;48.020;7.822;2023-11-21T12:48:56;10.20;99.90
2565;DHT22;1292;48.020;7.822;2023-11-21T12:51:23;10.20;99.90
2565;DHT22;1292;48.020;7.822;2023-11-21T12:53:51;10.30;99.90
2565;DHT22;1292;48.020;7.822;2023-11-21T12:56:21;10.40;99.90
2565;DHT22;1292;48.020;7.822;2023-11-21T12:58:49;10.30;99.90
2565;DHT22;1292;48.020;7.822;2023-11-21T13:01:17;10.30;99.90
2565;DHT22;1292;48.020;7.822;2023-11-21T13:03:47;10.40;99.90
2565;DHT22;1292;48.020;7.822;2023-11-21T13:06:17;10.50;99.90
2565;DHT22;1292;48.020;7.822;2023-11-21T13:08:44;10.50;99.90
2565;DHT22;1292;48.020;7.822;2023-11-21T13:11:13;10.60;99.90
2565;DHT22;1292;48.020;7.822;2023-11-21T13:13:41;10.60;99.90
2565;DHT22;1292;48.020;7.822;2023-11-21T13:16:09;10.70;99.90
2565;DHT22;1292;48.020;7.822;2023-11-21T13:18:35;10.70;99.90
2565;DHT22;1292;48.020;7.822;2023-11-21T13:21:04;10.70;99.90
2565;DHT22;1292;48.020;7.822;2023-11-21T13:23:36;10.60;99.90
2565;DHT22;1292;48.020;7.822;2023-11-21T13:26:03;10.60;99.90
2565;DHT22;1292;48.020;7.822;2023-11-21T13:28:32;10.60;99.90
2565;DHT22;1292;48.020;7.822;2023-11-21T13:30:59;10.60;99.90
2565;DHT22;1292;48.020;7.822;2023-11-21T13:33:28;10.60;99.90
2565;DHT22;1292;48.020;7.822;2023-11-21T13:35:56;10.70;99.90
2565;DHT22;1292;48.020;7.822;2023-11-21T13:38:23;10.70;99.90
2565;DHT22;1292;48.020;7.822;2023-11-21T13:40:51;10.80;99.90
2565;DHT22;1292;48.020;7.822;2023-11-21T13:43:21;10.80;99.90
2565;DHT22;1292;48.020;7.822;2023-11-21T13:45:53;10.80;99.90
2565;DHT22;1292;48.020;7.822;2023-11-21T13:48:26;10.90;99.90
2565;DHT22;1292;48.020;7.822;2023-11-21T13:50:58;10.80;99.90
2565;DHT22;1292;48.020;7.822;2023-11-21T13:53:31;10.80;99.90
2565;DHT22;1292;48.020;7.822;2023-11-21T13:55:58;10.70;99.90
2565;DHT22;1292;48.020;7.822;2023-11-21T13:58:25;10.60;99.90
2565;DHT22;1292;48.020;7.822;2023-11-21T14:01:06;10.60;99.90
2565;DHT22;1292;48.020;7.822;2023-11-21T14:03:42;10.60;99.90
2565;DHT22;1292;48.020;7.822;2023-11-21T14:06:17;10.60;99.90
2565;DHT22;1292;48.020;7.822;2023-11-21T14:08:50;10.60;99.90
2565;DHT22;1292;48.020;7.822;2023-11-21T14:11:16;10.50;99.90
2565;DHT22;1292;48.020;7.822;2023-11-21T14:13:44;10.50;99.90
2565;DHT22;1292;48.020;7.822;2023-11-21T14:16:15;10.40;99.90
2565;DHT22;1292;48.020;7.822;2023-11-21T14:18:43;10.30;99.90
2565;DHT22;1292;48.020;7.822;2023-11-21T14:21:19;10.30;99.90
2565;DHT22;1292;48.020;7.822;2023-11-21T14:23:47;10.30;99.90
2565;DHT22;1292;48.020;7.822;2023-11-21T14:26:14;10.30;99.90
2565;DHT22;1292;48.020;7.822;2023-11-21T14:28:42;10.20;99.90
2565;DHT22;1292;48.020;7.822;2023-11-21T14:31:09;10.20;99.90
2565;DHT22;1292;48.020;7.822;2023-11-21T14:33:40;10.30;99.90
2565;DHT22;1292;48.020;7.822;2023-11-21T14:36:07;10.20;99.90
2565;DHT22;1292;48.020;7.822;2023-11-21T14:38:35;10.20;99.90
2565;DHT22;1292;48.020;7.822;2023-11-21T14:41:02;10.10;99.90
2565;DHT22;1292;48.020;7.822;2023-11-21T14:43:32;10.10;99.90
2565;DHT22;1292;48.020;7.822;2023-11-21T14:46:00;10.10;99.90
2565;DHT22;1292;48.020;7.822;2023-11-21T14:48:28;10.10;99.90
2565;DHT22;1292;48.020;7.822;2023-11-21T14:51:09;10.10;99.90
2565;DHT22;1292;48.020;7.822;2023-11-21T14:53:53;10.00;99.90
2565;DHT22;1292;48.020;7.822;2023-11-21T14:56:19;10.00;99.90
2565;DHT22;1292;48.020;7.822;2023-11-21T14:58:52;10.00;99.90
2565;DHT22;1292;48.020;7.822;2023-11-21T15:01:20;10.00;99.90
2565;DHT22;1292;48.020;7.822;2023-11-21T15:03:56;10.00;99.90
2565;DHT22;1292;48.020;7.822;2023-11-21T15:06:23;10.10;99.90
2565;DHT22;1292;48.020;7.822;2023-11-21T15:08:56;10.10;99.90
2565;DHT22;1292;48.020;7.822;2023-11-21T15:11:43;10.00;99.90
2565;DHT22;1292;48.020;7.822;2023-11-21T15:14:10;10.00;99.90
2565;DHT22;1292;48.020;7.822;2023-11-21T15:16:41;10.00;99.90
2565;DHT22;1292;48.020;7.822;2023-11-21T15:19:12;10.10;99.90
2565;DHT22;1292;48.020;7.822;2023-11-21T15:21:45;10.10;99.90
2565;DHT22;1292;48.020;7.822;2023-11-21T15:24:11;10.00;99.90
2565;DHT22;1292;48.020;7.822;2023-11-21T15:26:38;10.10;99.90
2565;DHT22;1292;48.020;7.822;2023-11-21T15:29:05;10.10;99.90
2565;DHT22;1292;48.020;7.822;2023-11-21T15:31:33;10.10;99.90
2565;DHT22;1292;48.020;7.822;2023-11-21T15:34:01;10.00;99.90
2565;DHT22;1292;48.020;7.822;2023-11-21T15:36:30;10.00;99.90
2565;DHT22;1292;48.020;7.822;2023-11-21T15:38:59;9.90;99.90
2565;DHT22;1292;48.020;7.822;2023-11-21T15:41:25;10.00;99.90
2565;DHT22;1292;48.020;7.822;2023-11-21T15:43:52;10.00;99.90
2565;DHT22;1292;48.020;7.822;2023-11-21T15:46:19;10.00;99.90
2565;DHT22;1292;48.020;7.822;2023-11-21T15:48:46;10.00;99.90
2565;DHT22;1292;48.020;7.822;2023-11-21T15:51:16;10.10;99.90
2565;DHT22;1292;48.020;7.822;2023-11-21T15:53:44;10.20;99.90
2565;DHT22;1292;48.020;7.822;2023-11-21T15:56:12;10.20;99.90
2565;DHT22;1292;48.020;7.822;2023-11-21T15:58:40;10.20;99.90
2565;DHT22;1292;48.020;7.822;2023-11-21T16:01:08;10.20;99.90
2565;DHT22;1292;48.020;7.822;2023-11-21T16:03:38;10.20;99.90
2565;DHT22;1292;48.020;7.822;2023-11-21T16:06:08;10.20;99.90
2565;DHT22;1292;48.020;7.822;2023-11-21T16:08:37;10.10;99.90
2565;DHT22;1292;48.020;7.822;2023-11-21T16:11:04;10.10;99.90
2565;DHT22;1292;48.020;7.822;2023-11-21T16:13:32;10.00;99.90
2565;DHT22;1292;48.020;7.822;2023-11-21T16:16:00;10.00;99.90
2565;DHT22;1292;48.020;7.822;2023-11-21T16:18:26;10.00;99.90
2565;DHT22;1292;48.020;7.822;2023-11-21T16:20:53;9.90;99.90
2565;DHT22;1292;48.020;7.822;2023-11-21T16:23:20;9.90;99.90
2565;DHT22;1292;48.020;7.822;2023-11-21T16:25:47;9.90;99.90
2565;DHT22;1292;48.020;7.822;2023-11-21T16:28:20;9.90;99.90
2565;DHT22;1292;48.020;7.822;2023-11-21T16:30:49;9.80;99.90
2565;DHT22;1292;48.020;7.822;2023-11-21T16:33:16;9.80;99.90
2565;DHT22;1292;48.020;7.822;2023-11-21T16:35:43;9.80;99.90
2565;DHT22;1292;48.020;7.822;2023-11-21T16:38:13;9.80;99.90
2565;DHT22;1292;48.020;7.822;2023-11-21T16:40:40;9.70;99.90
2565;DHT22;1292;48.020;7.822;2023-11-21T16:43:09;9.70;99.90
2565;DHT22;1292;48.020;7.822;2023-11-21T16:45:36;9.70;99.90
2565;DHT22;1292;48.020;7.822;2023-11-21T16:48:05;9.80;99.90
2565;DHT22;1292;48.020;7.822;2023-11-21T16:50:33;9.70;99.90
2565;DHT22;1292;48.020;7.822;2023-11-21T16:52:59;9.80;99.90
2565;DHT22;1292;48.020;7.822;2023-11-21T16:55:26;9.70;99.90
2565;DHT22;1292;48.020;7.822;2023-11-21T16:57:53;9.80;99.90
2565;DHT22;1292;48.020;7.822;2023-11-21T17:00:20;9.80;99.90
2565;DHT22;1292;48.020;7.822;2023-11-21T17:02:48;9.70;99.90
2565;DHT22;1292;48.020;7.822;2023-11-21T17:05:16;9.80;99.90
2565;DHT22;1292;48.020;7.822;2023-11-21T17:07:45;9.80;99.90
2565;DHT22;1292;48.020;7.822;2023-11-21T17:10:13;9.80;99.90
2565;DHT22;1292;48.020;7.822;2023-11-21T17:12:40;9.90;99.90
2565;DHT22;1292;48.020;7.822;2023-11-21T17:15:08;9.80;99.90
2565;DHT22;1292;48.020;7.822;2023-11-21T17:17:35;9.70;99.90
2565;DHT22;1292;48.020;7.822;2023-11-21T17:20:02;9.70;99.90
2565;DHT22;1292;48.020;7.822;2023-11-21T17:22:34;9.70;99.90
2565;DHT22;1292;48.020;7.822;2023-11-21T17:25:01;9.70;99.90
2565;DHT22;1292;48.020;7.822;2023-11-21T17:27:28;9.60;99.90
2565;DHT22;1292;48.020;7.822;2023-11-21T17:29:56;9.60;99.90
2565;DHT22;1292;48.020;7.822;2023-11-21T17:32:23;9.70;99.90
2565;DHT22;1292;48.020;7.822;2023-11-21T17:34:50;9.60;99.90
2565;DHT22;1292;48.020;7.822;2023-11-21T17:37:16;9.50;99.90
2565;DHT22;1292;48.020;7.822;2023-11-21T17:39:44;9.50;99.90
2565;DHT22;1292;48.020;7.822;2023-11-21T17:42:11;9.50;99.90
2565;DHT22;1292;48.020;7.822;2023-11-21T17:44:39;9.50;99.90
2565;DHT22;1292;48.020;7.822;2023-11-21T17:47:06;9.50;99.90
2565;DHT22;1292;48.020;7.822;2023-11-21T17:49:34;9.50;99.90
2565;DHT22;1292;48.020;7.822;2023-11-21T17:52:01;9.50;99.90
2565;DHT22;1292;48.020;7.822;2023-11-21T17:54:28;9.50;99.90
2565;DHT22;1292;48.020;7.822;2023-11-21T17:56:56;9.50;99.90
2565;DHT22;1292;48.020;7.822;2023-11-21T17:59:23;9.60;99.90
2565;DHT22;1292;48.020;7.822;2023-11-21T18:01:50;9.50;99.90
2565;DHT22;1292;48.020;7.822;2023-11-21T18:04:17;9.40;99.90
2565;DHT22;1292;48.020;7.822;2023-11-21T18:06:44;9.50;99.90
2565;DHT22;1292;48.020;7.822;2023-11-21T18:09:11;9.50;99.90
2565;DHT22;1292;48.020;7.822;2023-11-21T18:11:40;9.50;99.90
2565;DHT22;1292;48.020;7.822;2023-11-21T18:14:09;9.50;99.90
2565;DHT22;1292;48.020;7.822;2023-11-21T18:16:37;9.50;99.90
2565;DHT22;1292;48.020;7.822;2023-11-21T18:19:04;9.50;99.90
2565;DHT22;1292;48.020;7.822;2023-11-21T18:21:31;9.50;99.90
2565;DHT22;1292;48.020;7.822;2023-11-21T18:23:58;9.50;99.90
2565;DHT22;1292;48.020;7.822;2023-11-21T18:26:24;9.40;99.90
2565;DHT22;1292;48.020;7.822;2023-11-21T18:28:51;9.50;99.90
2565;DHT22;1292;48.020;7.822;2023-11-21T18:31:19;9.50;99.90
2565;DHT22;1292;48.020;7.822;2023-11-21T18:33:46;9.50;99.90
2565;DHT22;1292;48.020;7.822;2023-11-21T18:36:13;9.50;99.90
2565;DHT22;1292;48.020;7.822;2023-11-21T18:38:40;9.50;99.90
2565;DHT22;1292;48.020;7.822;2023-11-21T18:41:07;9.50;99.90
2565;DHT22;1292;48.020;7.822;2023-11-21T18:43:34;9.50;99.90
2565;DHT22;1292;48.020;7.822;2023-11-21T18:46:01;9.40;99.90
2565;DHT22;1292;48.020;7.822;2023-11-21T18:48:30;9.50;99.90
2565;DHT22;1292;48.020;7.822;2023-11-21T18:50:57;9.50;99.90
2565;DHT22;1292;48.020;7.822;2023-11-21T18:53:24;9.50;99.90
2565;DHT22;1292;48.020;7.822;2023-11-21T18:55:53;9.50;99.90
2565;DHT22;1292;48.020;7.822;2023-11-21T18:58:21;9.50;99.90
2565;DHT22;1292;48.020;7.822;2023-11-21T19:00:48;9.50;99.90
2565;DHT22;1292;48.020;7.822;2023-11-21T19:03:15;9.50;99.90
2565;DHT22;1292;48.020;7.822;2023-11-21T19:05:43;9.50;99.90
2565;DHT22;1292;48.020;7.822;2023-11-21T19:08:10;9.50;99.90
2565;DHT22;1292;48.020;7.822;2023-11-21T19:10:37;9.50;99.90
2565;DHT22;1292;48.020;7.822;2023-11-21T19:13:04;9.40;99.90
2565;DHT22;1292;48.020;7.822;2023-11-21T19:15:32;9.40;99.90
2565;DHT22;1292;48.020;7.822;2023-11-21T19:17:59;9.40;99.90
2565;DHT22;1292;48.020;7.822;2023-11-21T19:20:25;9.40;99.90
2565;DHT22;1292;48.020;7.822;2023-11-21T19:22:53;9.50;99.90
2565;DHT22;1292;48.020;7.822;2023-11-21T19:25:21;9.50;99.90
2565;DHT22;1292;48.020;7.822;2023-11-21T19:27:48;9.50;99.90
2565;DHT22;1292;48.020;7.822;2023-11-21T19:30:16;9.50;99.90
2565;DHT22;1292;48.020;7.822;2023-11-21T19:32:43;9.50;99.90
2565;DHT22;1292;48.020;7.822;2023-11-21T19:35:10;9.50;99.90
2565;DHT22;1292;48.020;7.822;2023-11-21T19:37:37;9.50;99.90
2565;DHT22;1292;48.020;7.822;2023-11-21T19:40:06;9.50;99.90
2565;DHT22;1292;48.020;7.822;2023-11-21T19:42:33;9.60;99.90
2565;DHT22;1292;48.020;7.822;2023-11-21T19:45:02;9.60;99.90
2565;DHT22;1292;48.020;7.822;2023-11-21T19:47:29;9.60;99.90
2565;DHT22;1292;48.020;7.822;2023-11-21T19:49:58;9.60;99.90
2565;DHT22;1292;48.020;7.822;2023-11-21T19:52:25;9.70;99.90
2565;DHT22;1292;48.020;7.822;2023-11-21T19:54:52;9.60;99.90
2565;DHT22;1292;48.020;7.822;2023-11-21T19:57:21;9.60;99.90
2565;DHT22;1292;48.020;7.822;2023-11-21T19:59:48;9.60;99.90
2565;DHT22;1292;48.020;7.822;2023-11-21T20:02:14;9.70;99.90
2565;DHT22;1292;48.020;7.822;2023-11-21T20:04:41;9.70;99.90
2565;DHT22;1292;48.020;7.822;2023-11-21T20:07:08;9.70;99.90
2565;DHT22;1292;48.020;7.822;2023-11-21T20:09:35;9.70;99.90
2565;DHT22;1292;48.020;7.822;2023-11-21T20:12:03;9.70;99.90
2565;DHT22;1292;48.020;7.822;2023-11-21T20:14:31;9.70;99.90
2565;DHT22;1292;48.020;7.822;2023-11-21T20:17:00;9.70;99.90
2565;DHT22;1292;48.020;7.822;2023-11-21T20:19:28;9.80;99.90
2565;DHT22;1292;48.020;7.822;2023-11-21T20:21:56;9.80;99.90
2565;DHT22;1292;48.020;7.822;2023-11-21T20:24:22;9.70;99.90
2565;DHT22;1292;48.020;7.822;2023-11-21T20:26:49;9.70;99.90
2565;DHT22;1292;48.020;7.822;2023-11-21T20:29:16;9.70;99.90
2565;DHT22;1292;48.020;7.822;2023-11-21T20:31:45;9.60;99.90
2565;DHT22;1292;48.020;7.822;2023-11-21T20:34:11;9.60;99.90
2565;DHT22;1292;48.020;7.822;2023-11-21T20:36:38;9.60;99.90
2565;DHT22;1292;48.020;7.822;2023-11-21T20:39:05;9.50;99.90
2565;DHT22;1292;48.020;7.822;2023-11-21T20:41:32;9.50;99.90
2565;DHT22;1292;48.020;7.822;2023-11-21T20:43:59;9.50;99.90
2565;DHT22;1292;48.020;7.822;2023-11-21T20:46:27;9.40;99.90
2565;DHT22;1292;48.020;7.822;2023-11-21T20:48:55;9.30;99.90
2565;DHT22;1292;48.020;7.822;2023-11-21T20:51:22;9.20;99.90
2565;DHT22;1292;48.020;7.822;2023-11-21T20:53:49;9.20;99.90
2565;DHT22;1292;48.020;7.822;2023-11-21T20:56:16;9.30;99.90
2565;DHT22;1292;48.020;7.822;2023-11-21T20:58:43;9.30;99.90
2565;DHT22;1292;48.020;7.822;2023-11-21T21:01:11;9.30;99.90
2565;DHT22;1292;48.020;7.822;2023-11-21T21:03:39;9.20;99.90
2565;DHT22;1292;48.020;7.822;2023-11-21T21:06:07;9.20;99.90
2565;DHT22;1292;48.020;7.822;2023-11-21T21:08:34;9.20;99.90
2565;DHT22;1292;48.020;7.822;2023-11-21T21:11:01;9.30;99.90
2565;DHT22;1292;48.020;7.822;2023-11-21T21:13:28;9.30;99.90
2565;DHT22;1292;48.020;7.822;2023-11-21T21:15:55;9.30;99.90
2565;DHT22;1292;48.020;7.822;2023-11-21T21:18:21;9.40;99.90
2565;DHT22;1292;48.020;7.822;2023-11-21T21:20:52;9.50;99.90
2565;DHT22;1292;48.020;7.822;2023-11-21T21:23:20;9.50;99.90
2565;DHT22;1292;48.020;7.822;2023-11-21T21:25:47;9.50;99.90
2565;DHT22;1292;48.020;7.822;2023-11-21T21:28:14;9.40;99.90
2565;DHT22;1292;48.020;7.822;2023-11-21T21:30:41;9.40;99.90
2565;DHT22;1292;48.020;7.822;2023-11-21T21:33:09;9.50;99.90
2565;DHT22;1292;48.020;7.822;2023-11-21T21:35:37;9.50;99.90
2565;DHT22;1292;48.020;7.822;2023-11-21T21:38:04;9.60;99.90
2565;DHT22;1292;48.020;7.822;2023-11-21T21:40:32;9.60;99.90
2565;DHT22;1292;48.020;7.822;2023-11-21T21:43:01;9.70;99.90
2565;DHT22;1292;48.020;7.822;2023-11-21T21:45:28;9.70;99.90
2565;DHT22;1292;48.020;7.822;2023-11-21T21:47:55;9.70;99.90
2565;DHT22;1292;48.020;7.822;2023-11-21T21:50:21;9.70;99.90
2565;DHT22;1292;48.020;7.822;2023-11-21T21:52:50;9.80;99.90
2565;DHT22;1292;48.020;7.822;2023-11-21T21:55:18;9.80;99.90
2565;DHT22;1292;48.020;7.822;2023-11-21T21:57:46;9.70;99.90
2565;DHT22;1292;48.020;7.822;2023-11-21T22:00:14;9.70;99.90
2565;DHT22;1292;48.020;7.822;2023-11-21T22:02:41;9.70;99.90
2565;DHT22;1292;48.020;7.822;2023-11-21T22:05:11;9.80;99.90
2565;DHT22;1292;48.020;7.822;2023-11-21T22:07:39;9.70;99.90
2565;DHT22;1292;48.020;7.822;2023-11-21T22:10:07;9.70;99.90
2565;DHT22;1292;48.020;7.822;2023-11-21T22:12:34;9.70;99.90
2565;DHT22;1292;48.020;7.822;2023-11-21T22:15:03;9.70;99.90
2565;DHT22;1292;48.020;7.822;2023-11-21T22:17:31;9.70;99.90
2565;DHT22;1292;48.020;7.822;2023-11-21T22:19:57;9.70;99.90
2565;DHT22;1292;48.020;7.822;2023-11-21T22:22:24;9.70;99.90
2565;DHT22;1292;48.020;7.822;2023-11-21T22:24:52;9.70;99.90
2565;DHT22;1292;48.020;7.822;2023-11-21T22:27:19;9.60;99.90
2565;DHT22;1292;48.020;7.822;2023-11-21T22:29:45;9.60;99.90
2565;DHT22;1292;48.020;7.822;2023-11-21T22:32:14;9.60;99.90
2565;DHT22;1292;48.020;7.822;2023-11-21T22:34:41;9.50;99.90
2565;DHT22;1292;48.020;7.822;2023-11-21T22:37:08;9.50;99.90
2565;DHT22;1292;48.020;7.822;2023-11-21T22:39:35;9.40;99.90
